createdAt,value
2023-07-18T00:00:44.000Z,0
2023-07-18T00:02:01.000Z,0
2023-07-18T00:03:17.000Z,0
2023-07-18T00:04:33.000Z,0
2023-07-18T00:05:49.000Z,0
2023-07-18T00:07:05.000Z,0
2023-07-18T00:08:21.000Z,0
2023-07-18T00:09:38.000Z,0
2023-07-18T00:10:54.000Z,0
2023-07-18T00:12:10.000Z,0
2023-07-18T00:13:26.000Z,0
2023-07-18T00:14:41.000Z,0
2023-07-18T00:15:58.000Z,0
2023-07-18T00:17:14.000Z,0
2023-07-18T00:18:30.000Z,0
2023-07-18T00:19:46.000Z,0
2023-07-18T00:21:02.000Z,0
2023-07-18T00:22:19.000Z,0
2023-07-18T00:23:35.000Z,0
2023-07-18T00:24:51.443Z,0
2023-07-18T00:26:07.000Z,0
2023-07-18T00:27:23.000Z,0
2023-07-18T00:28:40.000Z,0
2023-07-18T00:29:56.000Z,0
2023-07-18T00:31:11.000Z,0
2023-07-18T00:32:27.000Z,0
2023-07-18T00:33:43.000Z,0
2023-07-18T00:35:00.000Z,0
2023-07-18T00:36:16.000Z,0
2023-07-18T00:37:32.000Z,0
2023-07-18T00:38:48.000Z,0
2023-07-18T00:40:04.000Z,0
2023-07-18T00:41:21.000Z,0
2023-07-18T00:42:37.000Z,0
2023-07-18T00:43:53.000Z,0
2023-07-18T00:45:09.000Z,0
2023-07-18T00:46:25.000Z,0
2023-07-18T00:47:41.000Z,0
2023-07-18T00:48:57.000Z,0
2023-07-18T00:50:13.000Z,0
2023-07-18T00:51:29.000Z,0
2023-07-18T00:52:45.000Z,0
2023-07-18T00:54:01.000Z,0
2023-07-18T00:55:18.000Z,0
2023-07-18T00:56:34.000Z,0
2023-07-18T00:57:50.000Z,0
2023-07-18T00:59:06.000Z,0
2023-07-18T01:00:22.000Z,0
2023-07-18T01:01:39.000Z,0
2023-07-18T01:02:55.000Z,0
2023-07-18T01:04:10.000Z,0
2023-07-18T01:05:26.000Z,0
2023-07-18T01:06:42.866Z,0
2023-07-18T01:07:59.000Z,0
2023-07-18T01:09:15.000Z,0
2023-07-18T01:10:31.000Z,0
2023-07-18T01:11:47.000Z,0
2023-07-18T01:13:03.000Z,0
2023-07-18T01:14:20.000Z,0
2023-07-18T01:15:36.223Z,0
2023-07-18T01:16:52.000Z,0
2023-07-18T01:18:08.000Z,0
2023-07-18T01:19:24.000Z,0
2023-07-18T01:20:40.000Z,0
2023-07-18T01:21:56.000Z,0
2023-07-18T01:23:12.000Z,0
2023-07-18T01:24:28.000Z,0
2023-07-18T01:25:44.000Z,0
2023-07-18T01:27:01.000Z,0
2023-07-18T01:28:17.000Z,0
2023-07-18T01:29:33.000Z,0
2023-07-18T01:30:49.000Z,0
2023-07-18T01:32:05.000Z,0
2023-07-18T01:33:22.000Z,0
2023-07-18T01:34:38.000Z,0
2023-07-18T01:35:54.000Z,0
2023-07-18T01:37:09.000Z,0
2023-07-18T01:38:25.000Z,0
2023-07-18T01:39:41.000Z,0
2023-07-18T01:40:58.000Z,0
2023-07-18T01:42:14.000Z,0
2023-07-18T01:43:30.000Z,0
2023-07-18T01:44:45.000Z,0
2023-07-18T01:46:01.000Z,0
2023-07-18T01:47:18.000Z,0
2023-07-18T01:48:34.000Z,0
2023-07-18T01:49:50.000Z,0
2023-07-18T01:51:06.000Z,0
2023-07-18T01:52:22.000Z,0
2023-07-18T01:53:39.000Z,0
2023-07-18T01:54:55.000Z,0
2023-07-18T01:56:11.000Z,0
2023-07-18T01:57:27.000Z,0
2023-07-18T01:58:43.000Z,0
2023-07-18T02:00:00.000Z,0
2023-07-18T02:01:15.000Z,0
2023-07-18T02:02:31.000Z,0
2023-07-18T02:03:47.000Z,0
2023-07-18T02:05:03.000Z,0
2023-07-18T02:06:20.000Z,0
2023-07-18T02:07:36.000Z,0
2023-07-18T02:08:52.000Z,0
2023-07-18T02:10:08.000Z,0
2023-07-18T02:11:24.000Z,0
2023-07-18T02:12:41.000Z,0
2023-07-18T02:13:57.000Z,0
2023-07-18T02:15:13.000Z,0
2023-07-18T02:16:29.000Z,0
2023-07-18T02:17:44.000Z,0
2023-07-18T02:19:00.970Z,0
2023-07-18T02:20:17.000Z,0
2023-07-18T02:21:33.000Z,0
2023-07-18T02:22:49.000Z,0
2023-07-18T02:24:05.000Z,0
2023-07-18T02:25:22.000Z,0
2023-07-18T02:26:38.000Z,0
2023-07-18T02:27:54.000Z,0
2023-07-18T02:29:10.000Z,0
2023-07-18T02:30:26.000Z,0
2023-07-18T02:31:42.000Z,0
2023-07-18T02:32:59.000Z,0
2023-07-18T02:34:14.000Z,0
2023-07-18T02:35:30.492Z,0
2023-07-18T02:36:46.000Z,0
2023-07-18T02:38:02.000Z,0
2023-07-18T02:39:19.000Z,0
2023-07-18T02:40:35.000Z,0
2023-07-18T02:41:51.000Z,0
2023-07-18T02:43:07.000Z,0
2023-07-18T02:44:23.000Z,0
2023-07-18T02:45:40.000Z,0
2023-07-18T02:46:56.000Z,0
2023-07-18T02:48:12.000Z,0
2023-07-18T02:49:28.000Z,4
2023-07-18T02:50:43.000Z,4
2023-07-18T02:52:00.000Z,4
2023-07-18T02:53:16.000Z,0
2023-07-18T02:54:32.000Z,4
2023-07-18T02:55:48.000Z,4
2023-07-18T02:57:04.000Z,8
2023-07-18T02:58:21.000Z,4
2023-07-18T02:59:37.000Z,8
2023-07-18T03:00:53.000Z,8
2023-07-18T03:02:09.000Z,8
2023-07-18T03:03:25.000Z,8
2023-07-18T03:04:42.000Z,12
2023-07-18T03:05:58.000Z,12
2023-07-18T03:07:13.000Z,16
2023-07-18T03:08:29.000Z,16
2023-07-18T03:09:45.742Z,16
2023-07-18T03:11:02.000Z,20
2023-07-18T03:12:18.000Z,28
2023-07-18T03:13:34.319Z,32
2023-07-18T03:14:50.000Z,36
2023-07-18T03:16:06.000Z,40
2023-07-18T03:17:22.000Z,48
2023-07-18T03:18:39.000Z,56
2023-07-18T03:19:55.000Z,60
2023-07-18T03:21:11.000Z,68
2023-07-18T03:22:27.000Z,76
2023-07-18T03:23:42.000Z,84
2023-07-18T03:24:59.000Z,96
2023-07-18T03:26:15.000Z,108
2023-07-18T03:27:31.000Z,116
2023-07-18T03:28:47.000Z,128
2023-07-18T03:30:03.000Z,140
2023-07-18T03:31:20.000Z,156
2023-07-18T03:32:36.000Z,168
2023-07-18T03:33:52.000Z,184
2023-07-18T03:35:08.000Z,200
2023-07-18T03:36:24.000Z,216
2023-07-18T03:37:41.000Z,228
2023-07-18T03:38:57.000Z,244
2023-07-18T03:40:12.000Z,260
2023-07-18T03:41:28.000Z,280
2023-07-18T03:42:44.000Z,296
2023-07-18T03:44:01.000Z,316
2023-07-18T03:45:17.000Z,332
2023-07-18T03:46:33.000Z,344
2023-07-18T03:47:49.571Z,356
2023-07-18T03:49:05.000Z,372
2023-07-18T03:50:22.000Z,396
2023-07-18T03:51:38.000Z,412
2023-07-18T03:52:54.000Z,424
2023-07-18T03:54:10.000Z,440
2023-07-18T03:55:26.000Z,460
2023-07-18T03:56:42.000Z,488
2023-07-18T03:57:58.000Z,512
2023-07-18T03:59:14.000Z,548
2023-07-18T04:00:30.000Z,580
2023-07-18T04:01:46.000Z,628
2023-07-18T04:03:03.000Z,688
2023-07-18T04:04:19.000Z,740
2023-07-18T04:05:35.000Z,796
2023-07-18T04:06:51.000Z,868
2023-07-18T04:08:07.000Z,900
2023-07-18T04:09:23.000Z,904
2023-07-18T04:10:40.000Z,936
2023-07-18T04:11:56.000Z,1032
2023-07-18T04:13:11.000Z,1144
2023-07-18T04:14:27.000Z,1188
2023-07-18T04:15:43.000Z,1308
2023-07-18T04:17:00.000Z,1420
2023-07-18T04:18:16.000Z,1444
2023-07-18T04:19:32.000Z,1380
2023-07-18T04:20:48.000Z,1360
2023-07-18T04:22:04.000Z,1372
2023-07-18T04:23:21.000Z,1388
2023-07-18T04:24:37.000Z,1456
2023-07-18T04:25:53.436Z,1600
2023-07-18T04:27:09.000Z,1680
2023-07-18T04:28:25.000Z,1784
2023-07-18T04:29:41.000Z,1776
2023-07-18T04:30:57.000Z,1832
2023-07-18T04:32:13.000Z,1956
2023-07-18T04:33:29.000Z,2000
2023-07-18T04:34:45.000Z,2192
2023-07-18T04:36:02.000Z,2268
2023-07-18T04:37:18.000Z,2236
2023-07-18T04:38:34.000Z,2364
2023-07-18T04:39:50.000Z,2404
2023-07-18T04:41:06.000Z,2404
2023-07-18T04:42:23.000Z,2668
2023-07-18T04:43:39.000Z,2884
2023-07-18T04:44:55.000Z,2792
2023-07-18T04:46:10.000Z,2984
2023-07-18T04:47:26.000Z,3204
2023-07-18T04:48:43.000Z,3304
2023-07-18T04:49:59.000Z,3368
2023-07-18T04:51:15.000Z,3400
2023-07-18T04:52:31.000Z,3356
2023-07-18T04:53:47.762Z,3356
2023-07-18T04:55:04.000Z,3448
2023-07-18T04:56:20.000Z,3360
2023-07-18T04:57:36.000Z,3524
2023-07-18T04:58:52.000Z,3836
2023-07-18T05:00:08.735Z,3844
2023-07-18T05:01:25.000Z,3920
2023-07-18T05:02:40.000Z,4124
2023-07-18T05:03:56.338Z,4288
2023-07-18T05:05:12.000Z,4416
2023-07-18T05:06:28.000Z,4500
2023-07-18T05:07:45.000Z,4600
2023-07-18T05:09:01.000Z,4684
2023-07-18T05:10:17.000Z,4804
2023-07-18T05:11:33.000Z,4880
2023-07-18T05:12:49.000Z,4916
2023-07-18T05:14:05.000Z,4940
2023-07-18T05:15:22.107Z,4996
2023-07-18T05:16:38.000Z,5028
2023-07-18T05:17:54.000Z,5052
2023-07-18T05:19:09.000Z,5076
2023-07-18T05:20:25.000Z,5024
2023-07-18T05:21:42.000Z,4580
2023-07-18T05:22:58.000Z,5252
2023-07-18T05:24:14.000Z,5348
2023-07-18T05:25:30.000Z,5404
2023-07-18T05:26:46.000Z,5460
2023-07-18T05:28:03.071Z,5528
2023-07-18T05:29:19.000Z,5608
2023-07-18T05:30:35.000Z,5704
2023-07-18T05:31:51.000Z,5800
2023-07-18T05:33:07.000Z,5904
2023-07-18T05:34:24.000Z,5976
2023-07-18T05:35:39.000Z,6016
2023-07-18T05:36:55.000Z,6092
2023-07-18T05:38:11.000Z,5764
2023-07-18T05:39:27.000Z,5872
2023-07-18T05:40:44.000Z,6272
2023-07-18T05:42:00.000Z,6440
2023-07-18T05:43:16.000Z,6508
2023-07-18T05:44:32.000Z,6592
2023-07-18T05:45:48.000Z,6728
2023-07-18T05:47:05.000Z,6828
2023-07-18T05:48:21.000Z,6912
2023-07-18T05:49:37.000Z,7016
2023-07-18T05:50:53.000Z,7136
2023-07-18T05:52:08.000Z,7236
2023-07-18T05:53:25.000Z,7340
2023-07-18T05:54:41.000Z,7428
2023-07-18T05:55:57.000Z,7500
2023-07-18T05:57:13.000Z,7664
2023-07-18T05:58:29.000Z,7884
2023-07-18T05:59:45.000Z,8080
2023-07-18T06:01:01.000Z,8268
2023-07-18T06:02:17.000Z,8460
2023-07-18T06:03:33.000Z,8676
2023-07-18T06:04:49.000Z,8936
2023-07-18T06:06:06.000Z,9384
2023-07-18T06:07:22.000Z,9960
2023-07-18T06:08:38.000Z,10640
2023-07-18T06:09:54.000Z,24544
2023-07-18T06:11:10.000Z,63808
2023-07-18T06:12:27.000Z,84800
2023-07-18T06:13:43.000Z,87840
2023-07-18T06:14:59.000Z,88128
2023-07-18T06:16:14.000Z,88704
2023-07-18T06:17:30.000Z,90560
2023-07-18T06:18:47.000Z,92192
2023-07-18T06:20:03.000Z,94976
2023-07-18T06:21:19.000Z,93408
2023-07-18T06:22:35.000Z,94208
2023-07-18T06:23:51.000Z,94048
2023-07-18T06:25:08.000Z,94944
2023-07-18T06:26:24.000Z,94816
2023-07-18T06:27:40.000Z,93376
2023-07-18T06:28:56.000Z,95936
2023-07-18T06:30:12.705Z,96704
2023-07-18T06:31:28.000Z,96384
2023-07-18T06:32:44.000Z,94560
2023-07-18T06:34:00.000Z,95904
2023-07-18T06:35:16.000Z,96224
2023-07-18T06:36:32.725Z,93920
2023-07-18T06:37:49.000Z,90880
2023-07-18T06:39:05.110Z,91136
2023-07-18T06:40:21.299Z,91520
2023-07-18T06:41:37.000Z,91584
2023-07-18T06:42:53.000Z,93088
2023-07-18T06:44:09.000Z,93312
2023-07-18T06:45:26.000Z,93152
2023-07-18T06:46:42.000Z,92672
2023-07-18T06:47:58.000Z,92352
2023-07-18T06:49:13.000Z,92480
2023-07-18T06:50:30.000Z,95136
2023-07-18T06:51:46.000Z,96256
2023-07-18T06:53:02.000Z,97088
2023-07-18T06:54:18.000Z,96128
2023-07-18T06:55:34.000Z,96416
2023-07-18T06:56:50.000Z,96128
2023-07-18T06:58:07.000Z,95680
2023-07-18T06:59:23.000Z,93024
2023-07-18T07:00:39.000Z,94336
2023-07-18T07:01:55.000Z,96640
2023-07-18T07:03:11.000Z,96672
2023-07-18T07:04:28.000Z,95360
2023-07-18T07:05:43.000Z,95424
2023-07-18T07:06:59.000Z,94880
2023-07-18T07:08:15.000Z,93920
2023-07-18T07:09:31.000Z,93088
2023-07-18T07:10:48.000Z,94848
2023-07-18T07:12:04.000Z,93664
2023-07-18T07:13:20.000Z,96128
2023-07-18T07:14:36.000Z,93632
2023-07-18T07:15:52.000Z,91456
2023-07-18T07:17:09.000Z,91616
2023-07-18T07:18:25.000Z,89696
2023-07-18T07:19:41.000Z,90688
2023-07-18T07:20:57.000Z,91840
2023-07-18T07:22:13.000Z,89504
2023-07-18T07:23:29.000Z,91168
2023-07-18T07:24:45.000Z,94176
2023-07-18T07:26:01.000Z,96512
2023-07-18T07:27:17.717Z,93952
2023-07-18T07:28:34.000Z,92256
2023-07-18T07:29:50.000Z,89472
2023-07-18T07:31:06.000Z,93760
2023-07-18T07:32:22.000Z,93280
2023-07-18T07:33:38.714Z,92768
2023-07-18T07:34:54.000Z,95136
2023-07-18T07:36:11.000Z,94304
2023-07-18T07:37:27.000Z,94656
2023-07-18T07:38:42.000Z,91328
2023-07-18T07:39:58.000Z,89856
2023-07-18T07:41:15.000Z,89824
2023-07-18T07:42:31.000Z,91264
2023-07-18T07:43:47.325Z,90272
2023-07-18T07:45:03.000Z,89152
2023-07-18T07:46:19.000Z,90816
2023-07-18T07:47:36.000Z,89248
2023-07-18T07:48:52.111Z,90016
2023-07-18T07:50:08.000Z,91072
2023-07-18T07:51:24.000Z,89536
2023-07-18T07:52:40.000Z,91520
2023-07-18T07:53:57.000Z,90848
2023-07-18T07:55:12.000Z,90080
2023-07-18T07:56:28.000Z,90432
2023-07-18T07:57:44.000Z,90112
2023-07-18T07:59:00.000Z,89792
2023-07-18T08:00:17.000Z,90400
2023-07-18T08:01:33.000Z,94464
2023-07-18T08:02:49.000Z,96576
2023-07-18T08:04:05.000Z,96704
2023-07-18T08:05:21.000Z,94560
2023-07-18T08:06:38.000Z,94560
2023-07-18T08:07:54.000Z,94368
2023-07-18T08:09:10.000Z,92896
2023-07-18T08:10:26.000Z,92064
2023-07-18T08:11:41.739Z,92448
2023-07-18T08:12:58.000Z,90144
2023-07-18T08:14:14.000Z,90944
2023-07-18T08:15:30.000Z,93888
2023-07-18T08:16:46.000Z,92448
2023-07-18T08:18:02.000Z,89376
2023-07-18T08:19:19.000Z,88896
2023-07-18T08:20:35.000Z,89120
2023-07-18T08:21:51.000Z,63808
2023-07-18T08:23:07.000Z,25472
2023-07-18T08:24:23.000Z,13172
2023-07-18T08:25:40.000Z,12032
2023-07-18T08:26:56.127Z,13968
2023-07-18T08:28:11.000Z,13324
2023-07-18T08:29:27.000Z,12628
2023-07-18T08:30:43.000Z,12068
2023-07-18T08:32:00.000Z,11940
2023-07-18T08:33:16.000Z,11872
2023-07-18T08:34:32.000Z,12052
2023-07-18T08:35:48.000Z,12284
2023-07-18T08:37:04.000Z,12528
2023-07-18T08:38:21.000Z,12396
2023-07-18T08:39:37.000Z,12300
2023-07-18T08:40:53.000Z,12224
2023-07-18T08:42:09.000Z,12064
2023-07-18T08:43:25.000Z,12748
2023-07-18T08:44:41.000Z,12420
2023-07-18T08:45:57.000Z,12148
2023-07-18T08:47:13.000Z,11552
2023-07-18T08:48:29.000Z,11352
2023-07-18T08:49:45.000Z,10984
2023-07-18T08:51:01.000Z,10996
2023-07-18T08:52:18.000Z,11112
2023-07-18T08:53:34.000Z,11220
2023-07-18T08:54:50.000Z,11108
2023-07-18T08:56:06.000Z,10812
2023-07-18T08:57:22.000Z,10712
2023-07-18T08:58:39.000Z,10716
2023-07-18T08:59:55.000Z,11116
2023-07-18T09:01:10.000Z,11316
2023-07-18T09:02:26.000Z,11300
2023-07-18T09:03:42.000Z,11080
2023-07-18T09:04:59.065Z,10904
2023-07-18T09:06:15.000Z,11016
2023-07-18T09:07:31.000Z,10924
2023-07-18T09:08:47.000Z,10736
2023-07-18T09:10:03.000Z,11024
2023-07-18T09:11:20.000Z,10840
2023-07-18T09:12:36.000Z,10480
2023-07-18T09:13:52.442Z,10316
2023-07-18T09:15:08.000Z,10116
2023-07-18T09:16:24.000Z,10140
2023-07-18T09:17:40.000Z,10040
2023-07-18T09:18:56.000Z,9944
2023-07-18T09:20:12.000Z,9956
2023-07-18T09:21:28.000Z,9812
2023-07-18T09:22:44.000Z,9808
2023-07-18T09:24:01.000Z,9760
2023-07-18T09:25:17.000Z,9776
2023-07-18T09:26:33.000Z,9780
2023-07-18T09:27:49.000Z,9760
2023-07-18T09:29:05.000Z,9640
2023-07-18T09:30:22.000Z,9724
2023-07-18T09:31:38.000Z,9948
2023-07-18T09:32:54.000Z,9848
2023-07-18T09:34:09.000Z,9856
2023-07-18T09:35:25.000Z,9760
2023-07-18T09:36:42.000Z,9800
2023-07-18T09:37:58.000Z,9656
2023-07-18T09:39:14.000Z,8164
2023-07-18T09:40:30.000Z,9404
2023-07-18T09:41:46.000Z,9400
2023-07-18T09:43:03.000Z,9208
2023-07-18T09:44:19.000Z,9148
2023-07-18T09:45:35.000Z,9716
2023-07-18T09:46:51.000Z,10040
2023-07-18T09:48:07.000Z,10116
2023-07-18T09:49:24.000Z,9924
2023-07-18T09:50:39.000Z,9800
2023-07-18T09:51:55.000Z,9712
2023-07-18T09:53:11.000Z,9528
2023-07-18T09:54:27.000Z,9468
2023-07-18T09:55:44.000Z,9420
2023-07-18T09:57:00.145Z,9372
2023-07-18T09:58:16.000Z,10396
2023-07-18T09:59:32.000Z,14916
2023-07-18T10:00:48.000Z,13964
2023-07-18T10:02:05.000Z,10500
2023-07-18T10:03:21.000Z,10196
2023-07-18T10:04:37.000Z,10416
2023-07-18T10:05:53.000Z,10372
2023-07-18T10:07:08.000Z,10020
2023-07-18T10:08:25.000Z,9704
2023-07-18T10:09:41.000Z,9544
2023-07-18T10:10:57.000Z,9164
2023-07-18T10:12:13.000Z,9236
2023-07-18T10:13:29.000Z,9160
2023-07-18T10:14:45.000Z,9380
2023-07-18T10:16:01.000Z,9644
2023-07-18T10:17:17.000Z,9764
2023-07-18T10:18:33.000Z,9772
2023-07-18T10:19:49.000Z,9616
2023-07-18T10:21:06.000Z,9648
2023-07-18T10:22:22.000Z,9552
2023-07-18T10:23:38.000Z,9492
2023-07-18T10:24:54.000Z,9200
2023-07-18T10:26:10.000Z,8844
2023-07-18T10:27:26.000Z,8584
2023-07-18T10:28:43.000Z,8832
2023-07-18T10:29:59.000Z,8876
2023-07-18T10:31:14.000Z,8640
2023-07-18T10:32:30.000Z,9264
2023-07-18T10:33:46.956Z,9404
2023-07-18T10:35:03.000Z,9372
2023-07-18T10:36:19.000Z,9468
2023-07-18T10:37:35.000Z,9332
2023-07-18T10:38:51.000Z,9076
2023-07-18T10:40:07.000Z,9008
2023-07-18T10:41:24.000Z,8780
2023-07-18T10:42:40.000Z,8216
2023-07-18T10:43:56.000Z,7964
2023-07-18T10:45:12.000Z,6560
2023-07-18T10:46:28.000Z,6448
2023-07-18T10:47:44.000Z,6364
2023-07-18T10:49:00.000Z,6196
2023-07-18T10:50:16.000Z,6864
2023-07-18T10:51:32.000Z,7864
2023-07-18T10:52:48.000Z,8516
2023-07-18T10:54:05.000Z,9396
2023-07-18T10:55:21.000Z,9832
2023-07-18T10:56:37.000Z,9516
2023-07-18T10:57:53.000Z,10232
2023-07-18T10:59:09.000Z,10976
2023-07-18T11:00:26.000Z,10552
2023-07-18T11:01:42.000Z,10524
2023-07-18T11:02:58.477Z,9068
2023-07-18T11:04:13.000Z,8868
2023-07-18T11:05:29.000Z,9672
2023-07-18T11:06:46.000Z,9552
2023-07-18T11:08:02.262Z,8800
2023-07-18T11:09:18.000Z,9188
2023-07-18T11:10:34.000Z,9664
2023-07-18T11:11:50.000Z,10084
2023-07-18T11:13:07.000Z,10420
2023-07-18T11:14:23.000Z,10868
2023-07-18T11:15:39.000Z,11180
2023-07-18T11:16:55.000Z,10996
2023-07-18T11:18:11.000Z,10824
2023-07-18T11:19:28.063Z,10488
2023-07-18T11:20:43.000Z,9396
2023-07-18T11:21:59.000Z,8580
2023-07-18T11:23:15.000Z,8256
2023-07-18T11:24:31.821Z,8196
2023-07-18T11:25:48.000Z,8096
2023-07-18T11:27:04.000Z,8156
2023-07-18T11:28:20.000Z,8364
2023-07-18T11:29:36.000Z,8452
2023-07-18T11:30:52.000Z,8824
2023-07-18T11:32:09.000Z,9344
2023-07-18T11:33:25.000Z,9212
2023-07-18T11:34:41.000Z,9036
2023-07-18T11:35:57.000Z,8752
2023-07-18T11:37:12.000Z,8660
2023-07-18T11:38:29.000Z,8456
2023-07-18T11:39:45.000Z,9328
2023-07-18T11:41:01.000Z,9228
2023-07-18T11:42:17.000Z,10500
2023-07-18T11:43:33.000Z,9596
2023-07-18T11:44:50.000Z,10272
2023-07-18T11:46:06.000Z,10468
2023-07-18T11:47:22.000Z,10080
2023-07-18T11:48:38.000Z,9544
2023-07-18T11:49:54.000Z,7880
2023-07-18T11:51:10.000Z,7832
2023-07-18T11:52:27.000Z,7692
2023-07-18T11:53:42.000Z,7636
2023-07-18T11:54:58.000Z,7316
2023-07-18T11:56:14.000Z,7228
2023-07-18T11:57:30.000Z,6336
2023-07-18T11:58:47.000Z,5832
2023-07-18T12:00:03.000Z,5416
2023-07-18T12:01:19.000Z,5460
2023-07-18T12:02:35.727Z,5400
2023-07-18T12:03:51.000Z,5808
2023-07-18T12:05:08.000Z,6364
2023-07-18T12:06:24.000Z,6836
2023-07-18T12:07:40.000Z,7540
2023-07-18T12:08:56.000Z,7408
2023-07-18T12:10:11.000Z,7272
2023-07-18T12:11:28.000Z,7276
2023-07-18T12:12:44.000Z,7160
2023-07-18T12:14:00.000Z,7056
2023-07-18T12:15:16.000Z,6660
2023-07-18T12:16:32.000Z,6172
2023-07-18T12:17:49.000Z,6308
2023-07-18T12:19:05.000Z,6432
2023-07-18T12:20:21.000Z,6564
2023-07-18T12:21:37.000Z,6692
2023-07-18T12:22:53.000Z,6740
2023-07-18T12:24:10.079Z,6692
2023-07-18T12:25:26.000Z,6540
2023-07-18T12:26:41.000Z,6368
2023-07-18T12:27:57.000Z,6124
2023-07-18T12:29:13.000Z,5888
2023-07-18T12:30:30.000Z,5704
2023-07-18T12:31:46.000Z,5476
2023-07-18T12:33:02.000Z,5564
2023-07-18T12:34:18.000Z,5488
2023-07-18T12:35:34.000Z,5588
2023-07-18T12:36:51.000Z,5692
2023-07-18T12:38:07.000Z,5848
2023-07-18T12:39:23.000Z,5916
2023-07-18T12:40:39.000Z,5880
2023-07-18T12:41:55.000Z,5868
2023-07-18T12:43:11.000Z,5780
2023-07-18T12:44:27.000Z,5708
2023-07-18T12:45:43.000Z,5660
2023-07-18T12:46:59.000Z,5684
2023-07-18T12:48:15.000Z,5660
2023-07-18T12:49:32.000Z,5664
2023-07-18T12:50:48.000Z,5620
2023-07-18T12:52:04.000Z,5532
2023-07-18T12:53:20.000Z,5500
2023-07-18T12:54:36.000Z,5460
2023-07-18T12:55:53.000Z,5516
2023-07-18T12:57:09.000Z,4712
2023-07-18T12:58:25.000Z,4480
2023-07-18T12:59:40.000Z,4460
2023-07-18T13:00:56.000Z,4500
2023-07-18T13:02:13.000Z,5540
2023-07-18T13:03:29.000Z,5556
2023-07-18T13:04:45.000Z,5476
2023-07-18T13:06:01.000Z,5432
2023-07-18T13:07:17.000Z,5428
2023-07-18T13:08:34.000Z,5304
2023-07-18T13:09:50.000Z,5156
2023-07-18T13:11:06.000Z,5124
2023-07-18T13:12:22.000Z,4360
2023-07-18T13:13:38.000Z,4216
2023-07-18T13:14:54.000Z,5080
2023-07-18T13:16:10.000Z,5396
2023-07-18T13:17:26.000Z,5604
2023-07-18T13:18:42.000Z,5600
2023-07-18T13:19:58.000Z,4356
2023-07-18T13:21:14.000Z,5420
2023-07-18T13:22:31.000Z,5304
2023-07-18T13:23:47.000Z,5272
2023-07-18T13:25:03.000Z,5340
2023-07-18T13:26:19.000Z,5316
2023-07-18T13:27:35.000Z,5232
2023-07-18T13:28:52.000Z,5256
2023-07-18T13:30:08.000Z,5240
2023-07-18T13:31:24.498Z,5188
2023-07-18T13:32:39.000Z,5288
2023-07-18T13:33:55.000Z,5428
2023-07-18T13:35:12.000Z,5660
2023-07-18T13:36:28.000Z,5796
2023-07-18T13:37:44.000Z,5756
2023-07-18T13:39:00.000Z,5696
2023-07-18T13:40:16.000Z,5720
2023-07-18T13:41:33.000Z,5624
2023-07-18T13:42:49.000Z,5504
2023-07-18T13:44:05.000Z,5452
2023-07-18T13:45:21.000Z,5568
2023-07-18T13:46:37.000Z,5768
2023-07-18T13:47:54.000Z,5976
2023-07-18T13:49:09.000Z,6016
2023-07-18T13:50:25.000Z,6060
2023-07-18T13:51:41.000Z,5924
2023-07-18T13:52:57.000Z,5736
2023-07-18T13:54:14.000Z,5560
2023-07-18T13:55:30.000Z,5480
2023-07-18T13:56:46.000Z,5372
2023-07-18T13:58:02.000Z,5372
2023-07-18T13:59:18.000Z,5380
2023-07-18T14:00:35.000Z,5400
2023-07-18T14:01:51.000Z,5400
2023-07-18T14:03:07.000Z,5416
2023-07-18T14:04:23.000Z,5416
2023-07-18T14:05:38.000Z,5404
2023-07-18T14:06:55.000Z,5412
2023-07-18T14:08:11.000Z,5432
2023-07-18T14:09:27.360Z,5508
2023-07-18T14:10:43.000Z,5616
2023-07-18T14:11:59.000Z,5776
2023-07-18T14:13:15.000Z,5604
2023-07-18T14:14:32.000Z,5412
2023-07-18T14:15:48.000Z,5368
2023-07-18T14:17:04.000Z,5372
2023-07-18T14:18:20.000Z,5364
2023-07-18T14:19:36.000Z,5348
2023-07-18T14:20:53.000Z,5368
2023-07-18T14:22:08.313Z,5400
2023-07-18T14:23:24.000Z,5416
2023-07-18T14:24:40.000Z,5488
2023-07-18T14:25:56.000Z,4232
2023-07-18T14:27:13.000Z,4168
2023-07-18T14:28:29.000Z,5340
2023-07-18T14:29:44.000Z,5360
2023-07-18T14:31:00.690Z,5364
2023-07-18T14:32:16.000Z,5380
2023-07-18T14:33:33.000Z,5432
2023-07-18T14:34:49.000Z,5432
2023-07-18T14:36:05.000Z,5348
2023-07-18T14:37:21.000Z,5180
2023-07-18T14:38:37.000Z,5104
2023-07-18T14:39:54.000Z,5104
2023-07-18T14:41:10.000Z,5080
2023-07-18T14:42:26.000Z,5104
2023-07-18T14:43:42.000Z,5108
2023-07-18T14:44:58.000Z,5160
2023-07-18T14:46:14.000Z,5280
2023-07-18T14:47:30.000Z,5236
2023-07-18T14:48:46.000Z,5124
2023-07-18T14:50:02.000Z,5080
2023-07-18T14:51:18.000Z,5040
2023-07-18T14:52:35.000Z,5036
2023-07-18T14:53:51.000Z,5028
2023-07-18T14:55:07.000Z,5024
2023-07-18T14:56:23.000Z,5004
2023-07-18T14:57:39.000Z,5008
2023-07-18T14:58:56.000Z,5016
2023-07-18T15:00:12.158Z,5000
2023-07-18T15:01:28.000Z,4980
2023-07-18T15:02:43.000Z,4976
2023-07-18T15:03:59.000Z,4960
2023-07-18T15:05:15.000Z,4948
2023-07-18T15:06:32.000Z,4956
2023-07-18T15:07:48.336Z,4976
2023-07-18T15:09:04.000Z,4928
2023-07-18T15:10:20.000Z,4904
2023-07-18T15:11:36.000Z,4924
2023-07-18T15:12:53.000Z,4932
2023-07-18T15:14:09.000Z,4936
2023-07-18T15:15:25.000Z,4932
2023-07-18T15:16:41.000Z,4940
2023-07-18T15:17:57.000Z,4944
2023-07-18T15:19:13.000Z,4960
2023-07-18T15:20:29.000Z,4956
2023-07-18T15:21:45.000Z,4988
2023-07-18T15:23:01.000Z,4988
2023-07-18T15:24:17.000Z,4988
2023-07-18T15:25:34.000Z,4980
2023-07-18T15:26:50.000Z,4976
2023-07-18T15:28:06.453Z,4984
2023-07-18T15:29:22.000Z,4972
2023-07-18T15:30:38.000Z,4932
2023-07-18T15:31:55.000Z,4900
2023-07-18T15:33:11.000Z,4888
2023-07-18T15:34:27.000Z,4880
2023-07-18T15:35:42.000Z,4848
2023-07-18T15:36:58.000Z,4876
2023-07-18T15:38:15.013Z,4892
2023-07-18T15:39:31.000Z,4904
2023-07-18T15:40:47.000Z,4912
2023-07-18T15:42:03.000Z,4916
2023-07-18T15:43:19.000Z,4924
2023-07-18T15:44:36.000Z,4928
2023-07-18T15:45:52.000Z,4940
2023-07-18T15:47:08.000Z,4948
2023-07-18T15:48:24.000Z,4952
2023-07-18T15:49:40.000Z,4948
2023-07-18T15:50:56.000Z,4944
2023-07-18T15:52:12.000Z,4948
2023-07-18T15:53:28.000Z,4944
2023-07-18T15:54:44.000Z,4940
2023-07-18T15:56:00.000Z,4936
2023-07-18T15:57:16.000Z,4948
2023-07-18T15:58:33.000Z,4948
2023-07-18T15:59:49.304Z,4944
2023-07-18T16:01:05.000Z,4944
2023-07-18T16:02:21.693Z,4940
2023-07-18T16:03:37.000Z,4940
2023-07-18T16:04:54.000Z,4936
2023-07-18T16:06:10.000Z,4940
2023-07-18T16:07:26.000Z,4936
2023-07-18T16:08:41.000Z,4912
2023-07-18T16:09:57.000Z,4920
2023-07-18T16:11:14.000Z,4920
2023-07-18T16:12:30.000Z,4904
2023-07-18T16:13:46.000Z,4900
2023-07-18T16:15:02.000Z,4908
2023-07-18T16:16:18.000Z,4904
2023-07-18T16:17:35.000Z,4888
2023-07-18T16:18:51.000Z,4876
2023-07-18T16:20:07.000Z,4880
2023-07-18T16:21:23.000Z,4876
2023-07-18T16:22:39.000Z,4880
2023-07-18T16:23:56.000Z,4884
2023-07-18T16:25:11.000Z,4880
2023-07-18T16:26:27.000Z,4876
2023-07-18T16:27:43.000Z,4864
2023-07-18T16:28:59.000Z,4864
2023-07-18T16:30:16.000Z,4860
2023-07-18T16:31:32.000Z,4848
2023-07-18T16:32:48.000Z,4848
2023-07-18T16:34:04.000Z,4844
2023-07-18T16:35:20.000Z,4824
2023-07-18T16:36:37.000Z,4836
2023-07-18T16:37:53.000Z,4844
2023-07-18T16:39:09.000Z,4832
2023-07-18T16:40:25.000Z,4820
2023-07-18T16:41:40.000Z,4840
2023-07-18T16:42:57.000Z,4828
2023-07-18T16:44:13.000Z,4804
2023-07-18T16:45:29.000Z,4784
2023-07-18T16:46:45.000Z,4776
2023-07-18T16:48:01.000Z,4772
2023-07-18T16:49:17.000Z,4772
2023-07-18T16:50:34.000Z,4776
2023-07-18T16:51:50.000Z,4780
2023-07-18T16:53:06.000Z,4768
2023-07-18T16:54:22.000Z,4744
2023-07-18T16:55:38.000Z,4744
2023-07-18T16:56:55.000Z,4732
2023-07-18T16:58:10.000Z,4724
2023-07-18T16:59:26.000Z,4932
2023-07-18T17:00:42.000Z,4864
2023-07-18T17:01:58.000Z,4696
2023-07-18T17:03:15.000Z,4688
2023-07-18T17:04:31.000Z,4684
2023-07-18T17:05:47.000Z,4672
2023-07-18T17:07:03.000Z,4668